Time;durP1;ratioP1;P1;durP2;ratioP2;P2;SDS_P1;SDS_P2;PMS_P1;PMS_P2;Temp;Humidity;BMP_temperature;BMP_pressure;BME280_temperature;BME280_humidity;BME280_pressure;Samples;Min_cycle;Max_cycle;Signal;HPM_P1;HPM_P2
2022/05/18 00:00:58;;;;;;;4.93;4.40;;;;;;;12.01;100.00;99982.38;4807268;29;20675;-75
2022/05/18 00:03:28;;;;;;;4.77;4.37;;;;;;;11.96;100.00;99990.28;4807069;29;20208;-76
2022/05/18 00:05:55;;;;;;;6.27;4.57;;;;;;;11.86;100.00;99988.06;4823439;29;20187;-76
2022/05/18 00:08:22;;;;;;;4.70;4.30;;;;;;;11.81;100.00;99993.28;4823514;29;20343;-75
2022/05/18 00:10:49;;;;;;;5.20;4.70;;;;;;;11.75;100.00;99993.34;4823436;29;20221;-76
2022/05/18 00:13:17;;;;;;;5.27;4.70;;;;;;;11.72;100.00;100001.78;4823713;29;20241;-76
2022/05/18 00:15:45;;;;;;;5.23;4.73;;;;;;;11.64;100.00;99994.00;4807384;29;20229;-76
2022/05/18 00:18:11;;;;;;;6.77;4.77;;;;;;;11.59;100.00;100000.03;4823766;29;21067;-77
2022/05/18 00:20:38;;;;;;;5.77;4.93;;;;;;;11.54;100.00;99993.66;4823241;29;20264;-76
2022/05/18 00:23:05;;;;;;;5.10;4.70;;;;;;;11.49;100.00;100005.88;4807473;29;20241;-76
2022/05/18 00:25:36;;;;;;;5.90;5.00;;;;;;;11.40;100.00;99996.44;4823256;29;20234;-78
2022/05/18 00:28:03;;;;;;;6.80;4.83;;;;;;;11.38;100.00;100001.19;4823316;29;20643;-76
2022/05/18 00:30:31;;;;;;;5.10;4.60;;;;;;;11.33;100.00;100001.03;4823210;29;20205;-76
2022/05/18 00:33:03;;;;;;;4.77;4.37;;;;;;;11.31;100.00;100000.41;4823472;29;20245;-75
2022/05/18 00:35:30;;;;;;;5.80;4.50;;;;;;;11.32;100.00;100009.28;4823386;29;20193;-76
2022/05/18 00:37:57;;;;;;;7.03;4.87;;;;;;;11.26;100.00;100013.66;4823296;29;20657;-76
2022/05/18 00:40:24;;;;;;;5.07;4.53;;;;;;;11.24;100.00;100017.59;4822684;29;20243;-77
2022/05/18 00:42:51;;;;;;;4.90;4.40;;;;;;;11.22;100.00;100023.16;4806976;29;20892;-76
2022/05/18 00:45:18;;;;;;;6.27;4.90;;;;;;;11.23;100.00;100015.94;4823455;29;20202;-76
2022/05/18 00:47:46;;;;;;;5.50;5.00;;;;;;;11.21;100.00;100018.81;4823351;29;20194;-76
2022/05/18 00:50:24;;;;;;;5.63;4.60;;;;;;;11.26;100.00;100026.22;4822962;29;20940;-76
2022/05/18 00:52:58;;;;;;;5.37;4.60;;;;;;;11.27;100.00;100031.38;4806792;29;20201;-76
2022/05/18 00:55:26;;;;;;;6.50;5.17;;;;;;;11.27;100.00;100027.88;4822998;29;20269;-77
2022/05/18 00:58:31;;;;;;;5.77;4.80;;;;;;;11.41;100.00;100032.97;4806884;29;20189;-76
2022/05/18 01:00:58;;;;;;;6.73;5.00;;;;;;;11.43;100.00;100036.25;4795689;29;20205;-76
2022/05/18 01:03:27;;;;;;;6.90;5.30;;;;;;;11.42;100.00;100029.25;4822483;29;20276;-77
2022/05/18 01:05:57;;;;;;;5.87;4.90;;;;;;;11.39;100.00;100026.16;4806717;29;20227;-77
2022/05/18 01:08:52;;;;;;;7.03;5.00;;;;;;;11.35;100.00;100039.19;4806327;29;20228;-77
2022/05/18 01:11:19;;;;;;;6.13;4.70;;;;;;;11.30;100.00;100033.63;4806694;29;20268;-76
2022/05/18 01:13:46;;;;;;;5.83;4.93;;;;;;;11.32;100.00;100034.25;4822049;29;20252;-76
2022/05/18 01:16:13;;;;;;;6.47;5.00;;;;;;;11.21;100.00;100036.78;4822564;29;20309;-77
2022/05/18 01:18:41;;;;;;;5.77;5.17;;;;;;;11.19;100.00;100037.00;4805884;29;20633;-78
2022/05/18 01:21:08;;;;;;;7.67;5.03;;;;;;;11.17;100.00;100033.69;4822810;29;20194;-76
2022/05/18 01:23:36;;;;;;;5.47;4.93;;;;;;;11.17;100.00;100040.91;4805951;29;20268;-76
2022/05/18 01:26:35;;;;;;;5.23;4.73;;;;;;;11.06;100.00;100038.94;4822507;29;20664;-76
2022/05/18 01:29:05;;;;;;;6.37;5.10;;;;;;;10.98;100.00;100042.66;4810665;29;20217;-76
2022/05/18 01:31:41;;;;;;;5.30;4.40;;;;;;;10.93;100.00;100037.94;4791875;29;20194;-77
2022/05/18 01:34:08;;;;;;;6.03;5.43;;;;;;;10.86;100.00;100042.50;4822574;29;20296;-76
2022/05/18 01:36:35;;;;;;;6.20;4.90;;;;;;;10.83;100.00;100042.91;4822487;29;20197;-76
2022/05/18 01:39:02;;;;;;;5.57;4.93;;;;;;;10.79;100.00;100039.00;4822308;29;20276;-77
2022/05/18 01:41:30;;;;;;;6.10;4.90;;;;;;;10.81;100.00;100036.13;4822267;29;20289;-77
2022/05/18 01:44:01;;;;;;;7.27;4.80;;;;;;;10.76;100.00;100041.28;4806113;29;20254;-78
2022/05/18 01:46:29;;;;;;;5.43;4.93;;;;;;;10.71;100.00;100046.47;4822357;29;20190;-76
2022/05/18 01:48:56;;;;;;;5.63;4.80;;;;;;;10.68;100.00;100046.88;4821696;29;20190;-76
2022/05/18 01:51:30;;;;;;;5.57;5.07;;;;;;;10.65;100.00;100047.28;4821743;29;20232;-77
2022/05/18 01:53:57;;;;;;;5.50;5.00;;;;;;;10.57;100.00;100040.31;4821431;29;20239;-77
2022/05/18 01:56:24;;;;;;;5.97;5.13;;;;;;;10.53;100.00;100047.13;4821819;29;20273;-78
2022/05/18 01:58:51;;;;;;;5.70;4.63;;;;;;;10.46;100.00;100044.44;4821847;29;21062;-76
2022/05/18 02:01:20;;;;;;;5.10;4.60;;;;;;;10.46;100.00;100047.13;4805427;29;20221;-75
2022/05/18 02:03:48;;;;;;;6.20;4.93;;;;;;;10.46;100.00;100049.78;4821097;29;20583;-77
2022/05/18 02:06:15;;;;;;;5.93;5.17;;;;;;;10.41;100.00;100057.63;4821823;29;20659;-76
2022/05/18 02:08:42;;;;;;;5.87;5.27;;;;;;;10.34;100.00;100056.84;4805567;29;20619;-76
2022/05/18 02:11:13;;;;;;;5.63;4.93;;;;;;;10.35;100.00;100071.88;4821449;29;20186;-76
2022/05/18 02:13:40;;;;;;;5.67;5.17;;;;;;;10.29;100.00;100066.50;4821240;29;20840;-76
2022/05/18 02:16:08;;;;;;;6.83;5.53;;;;;;;10.25;100.00;100068.78;4821505;29;20197;-76
2022/05/18 02:18:35;;;;;;;6.67;5.40;;;;;;;10.20;100.00;100076.63;4820960;29;20198;-77
2022/05/18 02:21:03;;;;;;;5.70;5.10;;;;;;;10.15;100.00;100082.59;4821597;29;20213;-77
2022/05/18 02:23:30;;;;;;;6.67;5.20;;;;;;;10.10;100.00;100084.19;4821645;29;20341;-75
2022/05/18 02:25:58;;;;;;;5.40;4.90;;;;;;;10.05;100.00;100084.81;4821336;29;20225;-76
2022/05/18 02:28:25;;;;;;;5.87;5.37;;;;;;;10.12;100.00;100088.31;4819323;29;20245;-76
2022/05/18 02:30:52;;;;;;;5.50;4.73;;;;;;;10.04;100.00;100087.69;4821469;29;20590;-76
2022/05/18 02:33:19;;;;;;;6.63;4.70;;;;;;;10.00;100.00;100097.16;4821672;29;20194;-77
2022/05/18 02:35:45;;;;;;;5.97;5.47;;;;;;;9.92;100.00;100095.50;4820948;29;20280;-75
2022/05/18 02:38:13;;;;;;;5.97;5.40;;;;;;;9.88;100.00;100088.91;4821215;29;20213;-76
2022/05/18 02:40:40;;;;;;;8.77;5.70;;;;;;;9.84;100.00;100089.53;4820746;29;20254;-76
2022/05/18 02:43:07;;;;;;;6.03;5.47;;;;;;;9.84;100.00;100095.72;4821533;29;20217;-75
2022/05/18 02:45:33;;;;;;;6.20;5.60;;;;;;;9.79;100.00;100097.34;4821072;29;20211;-75
2022/05/18 02:48:01;;;;;;;6.60;6.00;;;;;;;9.73;100.00;100098.97;4821284;29;20232;-75
2022/05/18 02:50:28;;;;;;;6.20;5.60;;;;;;;9.69;100.00;100108.44;4820914;29;20192;-75
2022/05/18 02:52:54;;;;;;;8.37;5.90;;;;;;;9.73;100.00;100102.47;4820752;29;20194;-76
2022/05/18 02:56:07;;;;;;;6.97;6.27;;;;;;;9.69;100.00;100100.41;4820799;29;20214;-75
2022/05/18 02:58:08;;;;;;;6.33;5.47;;;;;;;9.63;100.00;100106.56;4811804;29;20247;-76
2022/05/18 03:00:35;;;;;;;8.67;6.33;;;;;;;9.60;100.00;100113.16;4820960;29;20280;-77
2022/05/18 03:03:02;;;;;;;6.87;6.27;;;;;;;9.61;100.00;100116.66;4820748;29;20182;-76
2022/05/18 03:05:30;;;;;;;6.70;6.17;;;;;;;9.59;100.00;100124.03;4820876;29;20218;-76
2022/05/18 03:07:58;;;;;;;7.03;6.40;;;;;;;9.59;100.00;100119.53;4821467;29;20198;-77
2022/05/18 03:10:25;;;;;;;7.33;6.10;;;;;;;9.56;100.00;100121.78;4820022;29;20277;-76
2022/05/18 03:12:52;;;;;;;8.53;7.10;;;;;;;9.59;100.00;100116.84;4821001;29;20228;-76
2022/05/18 03:15:19;;;;;;;8.27;6.20;;;;;;;9.59;100.00;100124.03;4820749;29;20651;-77
2022/05/18 03:17:46;;;;;;;7.23;6.53;;;;;;;9.63;100.00;100133.31;4821084;29;20647;-76
2022/05/18 03:23:33;;;;;;;8.00;7.20;;;;;;;9.65;100.00;100136.63;4821069;29;20250;-76
2022/05/18 03:25:45;;;;;;;8.20;7.37;;;;;;;9.77;100.00;100143.03;4820970;29;20193;-77
2022/05/18 03:28:12;;;;;;;7.53;6.90;;;;;;;9.77;100.00;100153.72;4820882;29;20665;-77
2022/05/18 03:30:39;;;;;;;6.93;6.27;;;;;;;9.76;100.00;100148.56;4820723;29;20280;-77
2022/05/18 03:33:06;;;;;;;7.07;6.37;;;;;;;9.76;100.00;100157.44;4820816;29;20226;-77
2022/05/18 03:35:33;;;;;;;7.17;6.57;;;;;;;9.77;100.00;100163.59;4804104;29;20326;-76
2022/05/18 03:38:00;;;;;;;6.67;5.93;;;;;;;9.83;100.00;100170.84;4820948;29;20202;-77
2022/05/18 03:40:27;;;;;;;6.33;5.73;;;;;;;9.84;100.00;100164.47;4820173;29;20286;-76
2022/05/18 03:42:54;;;;;;;6.37;5.80;;;;;;;9.86;100.00;100176.59;4820945;29;20262;-77
2022/05/18 03:45:21;;;;;;;7.83;5.77;;;;;;;9.90;100.00;100174.34;4820773;29;20236;-77
2022/05/18 03:47:48;;;;;;;6.50;5.90;;;;;;;9.94;100.00;100178.25;4821005;29;20193;-77
2022/05/18 03:50:17;;;;;;;6.30;5.80;;;;;;;9.97;100.00;100184.06;4820888;29;20186;-77
2022/05/18 03:52:44;;;;;;;6.60;5.90;;;;;;;10.06;100.00;100182.84;4820542;29;20273;-77
2022/05/18 03:55:11;;;;;;;6.90;6.30;;;;;;;10.62;100.00;100187.06;4820448;29;20293;-76
2022/05/18 03:57:38;;;;;;;6.83;6.17;;;;;;;12.03;100.00;100188.97;4820991;29;20319;-76
2022/05/18 04:00:07;;;;;;;7.80;5.70;;;;;;;13.38;100.00;100215.16;4820516;29;20240;-76
2022/05/18 04:02:42;;;;;;;5.90;5.40;;;;;;;14.58;100.00;100260.06;4819969;29;20209;-77
2022/05/18 04:05:10;;;;;;;6.33;5.27;;;;;;;15.60;100.00;100336.25;4820413;29;20793;-77
2022/05/18 04:07:37;;;;;;;6.33;5.50;;;;;;;16.30;100.00;100361.31;4820170;29;20193;-77
2022/05/18 04:10:04;;;;;;;5.53;5.00;;;;;;;17.02;100.00;100340.81;4820575;29;20667;-77
2022/05/18 04:12:31;;;;;;;5.70;5.10;;;;;;;17.09;100.00;100210.69;4820652;29;20305;-76
2022/05/18 04:14:58;;;;;;;6.17;4.57;;;;;;;16.64;100.00;100205.38;4820073;29;20300;-77
2022/05/18 04:17:25;;;;;;;6.10;5.13;;;;;;;16.01;100.00;100206.38;4819845;29;20251;-77
2022/05/18 04:19:53;;;;;;;5.33;4.83;;;;;;;15.37;100.00;100218.25;4820062;29;20269;-76
2022/05/18 04:22:21;;;;;;;6.77;5.10;;;;;;;14.84;100.00;100224.56;4820577;29;20242;-77
2022/05/18 04:24:48;;;;;;;5.53;4.80;;;;;;;14.41;100.00;100224.03;4820191;29;20316;-77
2022/05/18 04:27:14;;;;;;;5.27;4.77;;;;;;;14.12;100.00;100233.72;4820201;29;20218;-76
2022/05/18 04:29:41;;;;;;;6.20;5.20;;;;;;;13.87;100.00;100233.00;4819796;29;20246;-77
2022/05/18 04:32:08;;;;;;;5.67;5.10;;;;;;;13.76;100.00;100233.78;4820310;29;20725;-77
2022/05/18 04:34:36;;;;;;;6.20;5.33;;;;;;;13.68;100.00;100234.91;4821417;29;20217;-77
2022/05/18 04:37:03;;;;;;;6.43;5.77;;;;;;;13.69;100.00;100231.16;4807460;29;20228;-77
2022/05/18 04:39:30;;;;;;;5.83;5.33;;;;;;;13.71;100.00;100244.41;4823040;29;20278;-77
2022/05/18 04:41:58;;;;;;;5.67;4.97;;;;;;;13.76;100.00;100241.88;4822405;29;20239;-76
2022/05/18 04:44:25;;;;;;;6.07;5.40;;;;;;;13.83;100.00;100246.13;4823289;29;20718;-76
2022/05/18 04:46:55;;;;;;;6.40;5.50;;;;;;;13.94;100.00;100247.25;4823489;29;20199;-77
2022/05/18 04:49:22;;;;;;;6.10;5.60;;;;;;;14.04;100.00;100253.72;4822968;29;20192;-77
2022/05/18 04:51:49;;;;;;;7.20;5.80;;;;;;;14.21;100.00;100256.63;4822489;29;20218;-77
2022/05/18 04:54:16;;;;;;;6.73;5.17;;;;;;;14.32;100.00;100257.72;4822783;29;20650;-77
2022/05/18 04:56:42;;;;;;;5.73;5.13;;;;;;;14.48;100.00;100259.78;4822838;29;20274;-77
2022/05/18 04:59:09;;;;;;;7.63;5.50;;;;;;;14.59;100.00;100260.88;4823168;29;20328;-77
2022/05/18 05:01:36;;;;;;;5.40;4.90;;;;;;;14.66;100.00;100270.50;4822099;29;20188;-77
2022/05/18 05:04:03;;;;;;;5.97;5.37;;;;;;;14.75;100.00;100269.13;4822606;29;20200;-77
2022/05/18 05:06:31;;;;;;;6.67;5.10;;;;;;;14.83;100.00;100273.38;4822866;29;20209;-77
2022/05/18 05:08:57;;;;;;;5.97;5.03;;;;;;;14.95;100.00;100282.31;4822632;29;20224;-77
2022/05/18 05:11:24;;;;;;;6.90;5.13;;;;;;;15.07;100.00;100285.03;4822703;29;20188;-77
2022/05/18 05:13:51;;;;;;;6.00;5.40;;;;;;;15.19;100.00;100283.16;4822472;29;20228;-78
2022/05/18 05:16:17;;;;;;;8.87;5.50;;;;;;;15.29;100.00;100286.09;4822640;29;20224;-77
2022/05/18 05:18:46;;;;;;;5.83;5.17;;;;;;;15.28;100.00;100282.56;4822801;29;20315;-77
2022/05/18 05:21:13;;;;;;;8.53;5.33;;;;;;;15.50;100.00;100293.59;4822499;29;20277;-77
2022/05/18 05:23:40;;;;;;;9.50;5.60;;;;;;;15.71;100.00;100290.34;4797893;29;20276;-78
2022/05/18 05:26:07;;;;;;;6.60;5.40;;;;;;;15.79;100.00;100295.38;4788644;29;20201;-77
2022/05/18 05:28:34;;;;;;;7.10;5.40;;;;;;;15.85;100.00;100294.44;4803889;29;20266;-78
2022/05/18 05:31:05;;;;;;;6.73;4.97;;;;;;;16.09;100.00;100303.31;4804318;29;20278;-78
2022/05/18 05:33:32;;;;;;;6.17;5.20;;;;;;;16.20;100.00;100310.53;4804540;29;20636;-80
2022/05/18 05:35:59;;;;;;;9.23;5.70;;;;;;;16.10;100.00;100310.34;4804429;29;20325;-78
2022/05/18 05:38:27;;;;;;;7.77;5.50;;;;;;;16.04;100.00;100316.72;4789127;29;20275;-78
2022/05/18 05:40:55;;;;;;;7.80;5.70;;;;;;;16.26;100.00;100317.72;4788423;29;20217;-79
2022/05/18 05:43:22;;;;;;;8.20;5.40;;;;;;;16.25;100.00;100321.47;4804615;29;20198;-79
2022/05/18 05:46:09;;;;;;;7.77;5.13;;;;;;;16.40;100.00;100315.53;4803197;29;20225;-78
2022/05/18 05:48:36;;;;;;;10.77;5.80;;;;;;;16.57;100.00;100324.53;4773353;29;20267;-78
2022/05/18 05:51:04;;;;;;;8.00;5.60;;;;;;;16.59;100.00;100330.56;4803917;29;20236;-78
2022/05/18 05:53:32;;;;;;;6.87;4.80;;;;;;;16.56;100.00;100333.69;4788122;29;20194;-77
2022/05/18 05:56:00;;;;;;;7.40;5.40;;;;;;;16.51;100.00;100335.50;4802967;29;20225;-78
2022/05/18 05:58:27;;;;;;;6.03;5.43;;;;;;;16.65;100.00;100340.41;4822688;29;20201;-78
2022/05/18 06:00:54;;;;;;;6.97;5.30;;;;;;;16.65;100.00;100347.72;4810359;29;20257;-80
2022/05/18 06:03:20;;;;;;;6.13;5.53;;;;;;;16.89;100.00;100351.91;4804694;29;20193;-79
2022/05/18 06:05:47;;;;;;;7.27;5.40;;;;;;;16.85;100.00;100349.94;4804360;29;20245;-79
2022/05/18 06:08:14;;;;;;;5.87;5.30;;;;;;;16.95;100.00;100352.84;4804897;29;20685;-81
2022/05/18 06:10:41;;;;;;;9.20;5.60;;;;;;;16.76;100.00;100364.94;4787967;29;20211;-79
2022/05/18 06:13:10;;;;;;;6.50;5.67;;;;;;;16.78;100.00;100362.81;4809132;29;20706;-78
2022/05/18 06:15:38;;;;;;;7.77;5.40;;;;;;;17.02;100.00;100367.06;4822178;29;20240;-78
2022/05/18 06:18:05;;;;;;;6.30;5.37;;;;;;;16.91;100.00;100370.63;4821924;29;20190;-78
2022/05/18 06:20:32;;;;;;;8.30;6.13;;;;;;;16.90;100.00;100379.81;4822104;29;20216;-78
2022/05/18 06:22:59;;;;;;;8.07;6.03;;;;;;;16.77;100.00;100370.13;4822198;29;20325;-78
2022/05/18 06:25:26;;;;;;;6.60;5.97;;;;;;;17.04;100.00;100376.56;4822180;29;20179;-78
2022/05/18 06:27:53;;;;;;;6.50;5.87;;;;;;;17.11;100.00;100377.25;4822318;29;20190;-79
2022/05/18 06:30:20;;;;;;;9.17;6.30;;;;;;;17.10;100.00;100385.59;4815976;29;20230;-78
2022/05/18 06:32:47;;;;;;;7.00;6.00;;;;;;;17.09;100.00;100392.91;4803890;29;20226;-79
2022/05/18 06:35:13;;;;;;;6.40;5.80;;;;;;;17.14;100.00;100392.16;4803696;29;20301;-79
2022/05/18 06:37:40;;;;;;;8.10;5.73;;;;;;;17.26;100.00;100387.53;4803885;29;20288;-79
2022/05/18 06:40:08;;;;;;;6.43;5.80;;;;;;;17.32;100.00;100402.78;4803068;29;20183;-79
2022/05/18 06:42:35;;;;;;;7.27;6.10;;;;;;;17.26;100.00;100400.25;4803525;29;20222;-79
2022/05/18 06:45:03;;;;;;;8.67;6.10;;;;;;;17.36;100.00;100403.91;4772685;29;20198;-78
2022/05/18 06:47:31;;;;;;;7.60;5.57;;;;;;;17.36;100.00;100412.03;4803594;29;20281;-78
2022/05/18 06:49:58;;;;;;;7.47;5.77;;;;;;;17.35;100.00;100407.72;4804043;29;20225;-79
2022/05/18 06:52:25;;;;;;;8.63;6.37;;;;;;;17.26;100.00;100416.50;4787416;29;20190;-79
2022/05/18 06:54:52;;;;;;;7.17;6.47;;;;;;;17.23;100.00;100406.94;4803211;29;20289;-78
2022/05/18 06:57:20;;;;;;;8.33;5.43;;;;;;;17.66;100.00;100402.81;4803328;29;20182;-78
2022/05/18 06:59:47;;;;;;;8.50;6.53;;;;;;;17.54;100.00;100408.31;4802852;29;20214;-80
2022/05/18 07:02:14;;;;;;;8.97;6.10;;;;;;;17.69;100.00;100416.69;4802345;29;20575;-78
2022/05/18 07:04:41;;;;;;;7.47;6.40;;;;;;;17.37;100.00;100416.41;4803056;29;20578;-78
2022/05/18 07:07:16;;;;;;;7.83;6.27;;;;;;;17.52;100.00;100423.97;4803477;29;20179;-78
2022/05/18 07:09:43;;;;;;;7.70;6.20;;;;;;;17.57;100.00;100416.75;4803026;29;20257;-78
2022/05/18 07:12:10;;;;;;;7.90;7.10;;;;;;;17.41;100.00;100422.97;4786890;29;20248;-78
2022/05/18 07:14:37;;;;;;;7.60;6.10;;;;;;;17.63;100.00;100430.41;4803304;29;20202;-78
2022/05/18 07:17:03;;;;;;;9.07;6.30;;;;;;;17.66;99.92;100422.59;4802620;29;20750;-78
2022/05/18 07:19:30;;;;;;;8.13;6.40;;;;;;;17.54;100.00;100428.06;4803042;29;20251;-78
2022/05/18 07:21:57;;;;;;;8.03;6.13;;;;;;;17.79;100.00;100432.28;4802950;29;20217;-78
2022/05/18 07:24:24;;;;;;;9.50;6.27;;;;;;;17.76;100.00;100427.38;4803287;29;20321;-78
2022/05/18 07:26:51;;;;;;;9.73;6.37;;;;;;;17.57;100.00;100435.72;4802940;29;20241;-78
2022/05/18 07:29:17;;;;;;;8.30;6.00;;;;;;;17.73;100.00;100434.09;4802855;29;20195;-78
2022/05/18 07:34:30;;;;;;;7.10;6.10;;;;;;;18.33;97.97;100436.91;4802401;29;20195;-78
2022/05/18 07:36:57;;;;;;;10.23;6.70;;;;;;;17.89;99.77;100438.69;4802676;29;20270;-78
2022/05/18 07:39:24;;;;;;;6.90;6.27;;;;;;;18.22;98.75;100442.41;4802878;29;20274;-79
2022/05/18 07:41:51;;;;;;;9.50;6.30;;;;;;;17.98;98.12;100442.63;4802153;29;20270;-78
2022/05/18 07:44:19;;;;;;;9.27;6.33;;;;;;;18.04;100.00;100443.53;4786477;29;20282;-77
2022/05/18 07:46:46;;;;;;;8.97;6.40;;;;;;;17.96;100.00;100452.09;4802865;29;20225;-78
2022/05/18 07:49:13;;;;;;;8.20;6.60;;;;;;;17.83;100.00;100446.97;4802831;29;20195;-79
2022/05/18 07:51:41;;;;;;;9.00;7.00;;;;;;;17.65;100.00;100453.47;4802692;29;20225;-78
2022/05/18 07:54:07;;;;;;;11.83;7.17;;;;;;;17.79;100.00;100454.78;4802912;29;20225;-78
2022/05/18 07:56:37;;;;;;;7.80;7.00;;;;;;;17.92;100.00;100462.59;4802680;29;20250;-78
2022/05/18 07:59:05;;;;;;;13.57;7.13;;;;;;;17.72;100.00;100467.69;4787524;29;20251;-78
2022/05/18 08:01:33;;;;;;;8.23;6.63;;;;;;;17.84;100.00;100454.88;4786286;29;20710;-79
2022/05/18 08:03:59;;;;;;;8.60;6.80;;;;;;;17.78;100.00;100465.88;4802925;29;20206;-78
2022/05/18 08:06:27;;;;;;;8.53;7.43;;;;;;;17.87;98.68;100459.00;4802606;29;20191;-78
2022/05/18 08:08:55;;;;;;;8.07;6.73;;;;;;;18.09;100.00;100451.75;4787128;29;20273;-78
2022/05/18 08:16:53;;;;;;;8.30;6.47;;;;;;;18.17;94.47;100466.75;4806184;29;20278;-78
2022/05/18 08:19:21;;;;;;;6.67;5.97;;;;;;;18.21;95.06;100474.16;4805966;29;20229;-79
2022/05/18 08:21:48;;;;;;;6.93;5.90;;;;;;;17.99;92.37;100467.84;4805729;29;20229;-78
2022/05/18 08:24:15;;;;;;;6.80;6.17;;;;;;;17.84;92.94;100479.28;4818509;29;20232;-78
2022/05/18 08:26:42;;;;;;;8.37;5.70;;;;;;;18.16;86.16;100474.06;4823940;29;20225;-78
2022/05/18 08:29:10;;;;;;;7.87;5.53;;;;;;;18.16;86.68;100465.94;4823473;29;20345;-78
2022/05/18 08:31:36;;;;;;;7.63;5.10;;;;;;;18.17;87.70;100472.19;4807542;29;20222;-78
2022/05/18 08:34:04;;;;;;;6.90;5.00;;;;;;;18.14;87.51;100476.22;4823514;29;20548;-78
2022/05/18 08:36:31;;;;;;;7.30;4.40;;;;;;;18.15;81.84;100477.84;4823471;29;20325;-78
2022/05/18 08:38:58;;;;;;;6.37;5.07;;;;;;;18.23;88.42;100476.63;4807671;29;20213;-79
2022/05/18 08:41:42;;;;;;;5.97;5.27;;;;;;;18.30;88.74;100475.34;4823434;29;20201;-78
2022/05/18 08:44:19;;;;;;;4.17;3.73;;;;;;;18.35;78.48;100474.59;4823799;29;20182;-78
2022/05/18 08:47:16;;;;;;;5.70;3.93;;;;;;;18.62;81.56;100470.13;4807515;29;20209;-78
2022/05/18 08:50:00;;;;;;;5.73;5.03;;;;;;;18.42;85.45;100470.66;4806899;29;20249;-77
2022/05/18 08:52:57;;;;;;;7.43;5.00;;;;;;;18.77;80.12;100480.34;4807469;29;20771;-78
2022/05/18 08:55:42;;;;;;;5.27;4.80;;;;;;;18.55;79.93;100474.94;4823000;29;20259;-78
2022/05/18 08:58:29;;;;;;;8.53;3.97;;;;;;;18.65;76.19;100480.50;4823532;29;20210;-79
2022/05/18 09:01:18;;;;;;;4.73;4.27;;;;;;;18.75;70.34;100468.94;4822622;29;20663;-78
2022/05/18 09:03:53;;;;;;;6.67;3.93;;;;;;;18.89;70.84;100472.91;4806630;29;20618;-78
2022/05/18 09:06:39;;;;;;;4.83;3.97;;;;;;;19.21;72.46;100475.72;4806865;29;20185;-78
2022/05/18 09:12:28;;;;;;;5.77;3.80;;;;;;;18.79;64.23;100462.75;4720723;30;20292;-78
2022/05/18 09:14:56;;;;;;;4.57;3.43;;;;;;;18.99;59.84;100466.78;4805252;29;20208;-77
2022/05/18 09:17:31;;;;;;;5.37;3.33;;;;;;;19.18;59.97;100459.91;4822573;29;20200;-78
2022/05/18 09:20:15;;;;;;;4.40;2.90;;;;;;;19.30;65.14;100466.84;4806160;29;20630;-78
2022/05/18 09:22:51;;;;;;;4.67;2.60;;;;;;;19.25;61.66;100465.97;4821493;29;20230;-78
2022/05/18 09:25:51;;;;;;;5.13;3.33;;;;;;;18.97;61.19;100461.59;4822504;29;20213;-80
2022/05/18 09:28:18;;;;;;;4.27;2.80;;;;;;;19.14;62.35;100464.22;4822913;29;20770;-78
2022/05/18 09:31:04;;;;;;;3.13;2.83;;;;;;;19.26;60.03;100468.44;4822457;29;20247;-78
2022/05/18 09:33:51;;;;;;;4.63;2.77;;;;;;;19.23;56.82;100458.06;4822657;29;20198;-78
2022/05/18 09:36:42;;;;;;;3.63;2.70;;;;;;;19.68;56.34;100457.72;4822223;29;20690;-78
2022/05/18 09:39:13;;;;;;;4.57;3.00;;;;;;;19.84;54.31;100461.38;4822172;29;20278;-78
2022/05/18 09:42:00;;;;;;;5.13;3.10;;;;;;;19.96;55.71;100462.00;4805609;29;20746;-78
2022/05/18 09:44:42;;;;;;;4.80;2.50;;;;;;;19.88;53.08;100457.03;4805977;29;20791;-78
2022/05/18 09:47:16;;;;;;;8.83;2.73;;;;;;;19.74;52.63;100456.66;4806145;29;20206;-78
2022/05/18 09:49:50;;;;;;;3.67;2.33;;;;;;;19.66;51.45;100451.72;4805886;29;20624;-78
2022/05/18 09:52:28;;;;;;;5.63;2.23;;;;;;;19.61;53.48;100454.38;4806208;29;20190;-78
2022/05/18 09:55:00;;;;;;;2.43;2.10;;;;;;;19.57;52.48;100450.56;4806054;29;20266;-78
2022/05/18 09:57:37;;;;;;;3.27;2.10;;;;;;;19.57;54.17;100444.28;4806145;29;20182;-79
2022/05/18 10:00:08;;;;;;;4.30;2.20;;;;;;;19.82;49.78;100455.38;4822035;29;20193;-78
2022/05/18 10:08:45;;;;;;;2.93;1.90;;;;;;;20.13;45.92;100443.63;4783025;30;20767;-78
2022/05/18 10:11:18;;;;;;;4.87;1.97;;;;;;;20.26;45.97;100446.94;4782955;30;20218;-78
2022/05/18 10:14:01;;;;;;;6.30;1.90;;;;;;;20.12;47.12;100449.31;4789795;29;20206;-78
2022/05/18 10:16:37;;;;;;;2.73;1.83;;;;;;;20.20;45.64;100436.03;4805087;29;20259;-78
2022/05/18 10:19:08;;;;;;;2.73;1.93;;;;;;;20.21;48.52;100448.56;4805743;29;20265;-78
2022/05/18 10:21:36;;;;;;;3.63;1.60;;;;;;;20.57;47.32;100440.63;4805040;29;20218;-78
2022/05/18 10:24:22;;;;;;;3.87;1.93;;;;;;;20.63;46.55;100443.09;4805122;29;20284;-78
2022/05/18 10:27:05;;;;;;;2.70;1.60;;;;;;;20.56;43.45;100447.97;4805182;29;20212;-78
2022/05/18 10:29:32;;;;;;;6.70;2.00;;;;;;;20.52;42.78;100438.72;4820815;29;20190;-79
2022/05/18 10:32:09;;;;;;;2.93;1.77;;;;;;;20.42;44.67;100440.56;4820349;29;20290;-78
2022/05/18 10:34:47;;;;;;;2.00;1.80;;;;;;;20.70;42.03;100442.03;4820926;29;20178;-78
2022/05/18 10:37:25;;;;;;;1.67;1.57;;;;;;;20.71;39.70;100435.50;4804771;29;20206;-78
2022/05/18 10:39:57;;;;;;;3.57;1.70;;;;;;;21.02;40.44;100435.34;4821216;29;20295;-78
2022/05/18 10:42:28;;;;;;;2.60;1.80;;;;;;;21.07;40.29;100432.63;4805197;29;20191;-79
2022/05/18 10:44:58;;;;;;;7.10;1.63;;;;;;;21.08;41.02;100436.16;4789700;29;20210;-80
2022/05/18 10:47:31;;;;;;;5.87;2.00;;;;;;;20.95;40.13;100428.53;4821211;29;20185;-78
2022/05/18 10:50:24;;;;;;;1.97;1.60;;;;;;;21.05;40.28;100423.06;4821220;29;20587;-79
2022/05/18 10:53:00;;;;;;;2.47;1.50;;;;;;;21.21;39.56;100410.34;4804315;29;20185;-78
2022/05/18 10:55:29;;;;;;;2.80;1.50;;;;;;;21.50;39.30;100420.44;4820810;29;20302;-78
2022/05/18 10:58:07;;;;;;;2.70;1.40;;;;;;;20.98;39.21;100417.91;4805016;29;20276;-78
2022/05/18 11:01:05;;;;;;;1.80;1.70;;;;;;;21.14;41.88;100424.22;4804185;29;20277;-79
2022/05/18 11:03:54;;;;;;;3.67;2.10;;;;;;;21.17;39.88;100425.59;4804963;29;20218;-79
2022/05/18 11:06:26;;;;;;;3.60;1.70;;;;;;;21.49;40.34;100407.09;4804357;29;20245;-77
2022/05/18 11:08:53;;;;;;;2.67;1.37;;;;;;;21.23;43.39;100419.06;4820713;29;20185;-78
2022/05/18 11:11:42;;;;;;;3.03;1.47;;;;;;;21.04;41.84;100422.25;4821179;29;20215;-78
2022/05/18 11:14:37;;;;;;;2.90;1.43;;;;;;;20.64;40.65;100417.50;4804746;29;20234;-78
2022/05/18 11:17:16;;;;;;;2.80;1.70;;;;;;;21.17;40.75;100410.06;4820581;29;20204;-77
2022/05/18 11:20:16;;;;;;;4.07;1.70;;;;;;;20.86;43.61;100406.41;4820773;29;20239;-78
2022/05/18 11:23:01;;;;;;;3.13;1.50;;;;;;;21.07;40.80;100408.09;4820556;29;20303;-78
2022/05/18 11:25:49;;;;;;;1.50;1.40;;;;;;;20.86;37.93;100413.75;4804653;29;20251;-78
2022/05/18 11:28:54;;;;;;;2.63;1.60;;;;;;;20.81;40.56;100403.66;4819914;29;20219;-78
2022/05/18 11:31:49;;;;;;;3.60;1.87;;;;;;;20.54;41.75;100403.03;4820949;29;20236;-78
2022/05/18 11:34:47;;;;;;;4.30;1.60;;;;;;;20.97;44.20;100407.25;4804007;29;20621;-78
2022/05/18 11:37:38;;;;;;;1.73;1.40;;;;;;;21.18;41.21;100403.53;4820411;29;20238;-78
2022/05/18 11:40:47;;;;;;;3.97;1.53;;;;;;;21.67;40.45;100395.63;4820562;29;20181;-78
2022/05/18 11:43:38;;;;;;;4.63;1.80;;;;;;;21.90;41.39;100384.13;4776355;29;20239;-78
2022/05/18 11:46:23;;;;;;;2.93;1.47;;;;;;;21.95;41.67;100380.59;4807741;29;20184;-79
2022/05/18 11:48:59;;;;;;;3.03;1.60;;;;;;;21.65;39.69;100375.97;4824015;29;20268;-78
2022/05/18 11:51:44;;;;;;;2.90;1.60;;;;;;;21.92;39.22;100378.41;4823640;29;20196;-78
2022/05/18 11:54:28;;;;;;;3.10;1.80;;;;;;;21.59;37.08;100384.47;4823904;29;20257;-78
2022/05/18 11:57:32;;;;;;;1.40;1.13;;;;;;;21.61;40.95;100377.63;4807609;29;20207;-78
2022/05/18 12:04:04;;;;;;;2.87;1.60;;;;;;;22.49;37.89;100375.22;4713740;30;20213;-79
2022/05/18 12:07:19;;;;;;;3.57;1.30;;;;;;;22.71;37.33;100383.91;4713819;30;20285;-80